sensor_id;sensor_type;location;lat;lon;timestamp;temperature;humidity
18291;DHT22;9271;48.590;8.866;2023-11-21T00:02:14;10.10;99.90
18291;DHT22;9271;48.590;8.866;2023-11-21T00:04:40;10.20;99.90
18291;DHT22;9271;48.590;8.866;2023-11-21T00:07:07;10.30;99.90
18291;DHT22;9271;48.590;8.866;2023-11-21T00:09:35;10.30;99.90
18291;DHT22;9271;48.590;8.866;2023-11-21T00:12:02;10.40;99.90
18291;DHT22;9271;48.590;8.866;2023-11-21T00:14:29;10.40;99.90
18291;DHT22;9271;48.590;8.866;2023-11-21T00:16:56;10.40;99.90
18291;DHT22;9271;48.590;8.866;2023-11-21T00:19:22;10.30;99.90
18291;DHT22;9271;48.590;8.866;2023-11-21T00:21:49;10.30;99.90
18291;DHT22;9271;48.590;8.866;2023-11-21T00:24:16;10.40;99.90
18291;DHT22;9271;48.590;8.866;2023-11-21T00:26:44;10.40;99.90
18291;DHT22;9271;48.590;8.866;2023-11-21T00:29:11;10.50;99.90
18291;DHT22;9271;48.590;8.866;2023-11-21T00:31:38;10.40;99.90
18291;DHT22;9271;48.590;8.866;2023-11-21T00:34:05;10.60;99.90
18291;DHT22;9271;48.590;8.866;2023-11-21T00:36:31;10.70;99.90
18291;DHT22;9271;48.590;8.866;2023-11-21T00:38:58;10.60;99.90
18291;DHT22;9271;48.590;8.866;2023-11-21T00:41:25;10.50;99.90
18291;DHT22;9271;48.590;8.866;2023-11-21T00:43:54;10.40;99.90
18291;DHT22;9271;48.590;8.866;2023-11-21T00:46:21;10.50;99.90
18291;DHT22;9271;48.590;8.866;2023-11-21T00:48:49;10.60;99.90
18291;DHT22;9271;48.590;8.866;2023-11-21T00:51:16;10.80;99.90
18291;DHT22;9271;48.590;8.866;2023-11-21T00:53:42;10.30;99.90
18291;DHT22;9271;48.590;8.866;2023-11-21T00:56:09;10.10;99.90
18291;DHT22;9271;48.590;8.866;2023-11-21T00:58:36;10.30;99.90
18291;DHT22;9271;48.590;8.866;2023-11-21T01:01:04;10.30;99.90
18291;DHT22;9271;48.590;8.866;2023-11-21T01:03:31;10.40;99.90
18291;DHT22;9271;48.590;8.866;2023-11-21T01:05:57;10.40;99.90
18291;DHT22;9271;48.590;8.866;2023-11-21T01:08:24;10.40;99.90
18291;DHT22;9271;48.590;8.866;2023-11-21T01:10:51;10.30;99.90
18291;DHT22;9271;48.590;8.866;2023-11-21T01:13:18;10.30;99.90
18291;DHT22;9271;48.590;8.866;2023-11-21T01:15:44;10.40;99.90
18291;DHT22;9271;48.590;8.866;2023-11-21T01:18:12;10.20;99.90
18291;DHT22;9271;48.590;8.866;2023-11-21T01:20:39;10.20;99.90
18291;DHT22;9271;48.590;8.866;2023-11-21T01:23:06;10.30;99.90
18291;DHT22;9271;48.590;8.866;2023-11-21T01:25:33;10.20;99.90
18291;DHT22;9271;48.590;8.866;2023-11-21T01:27:59;10.30;99.90
18291;DHT22;9271;48.590;8.866;2023-11-21T01:30:26;10.30;99.90
18291;DHT22;9271;48.590;8.866;2023-11-21T01:32:53;10.50;99.90
18291;DHT22;9271;48.590;8.866;2023-11-21T01:35:20;10.30;99.90
18291;DHT22;9271;48.590;8.866;2023-11-21T01:37:47;10.30;99.90
18291;DHT22;9271;48.590;8.866;2023-11-21T01:40:14;10.40;99.90
18291;DHT22;9271;48.590;8.866;2023-11-21T01:42:41;10.40;99.90
18291;DHT22;9271;48.590;8.866;2023-11-21T01:45:09;10.50;99.90
18291;DHT22;9271;48.590;8.866;2023-11-21T01:47:38;10.40;99.90
18291;DHT22;9271;48.590;8.866;2023-11-21T01:50:08;10.50;99.90
18291;DHT22;9271;48.590;8.866;2023-11-21T01:52:39;10.50;99.90
18291;DHT22;9271;48.590;8.866;2023-11-21T01:55:07;10.30;99.90
18291;DHT22;9271;48.590;8.866;2023-11-21T01:57:35;10.70;99.90
18291;DHT22;9271;48.590;8.866;2023-11-21T02:00:04;10.40;99.90
18291;DHT22;9271;48.590;8.866;2023-11-21T02:02:41;10.00;99.90
18291;DHT22;9271;48.590;8.866;2023-11-21T02:05:08;9.60;99.90
18291;DHT22;9271;48.590;8.866;2023-11-21T02:07:35;9.40;99.90
18291;DHT22;9271;48.590;8.866;2023-11-21T02:10:05;9.10;99.90
18291;DHT22;9271;48.590;8.866;2023-11-21T02:12:32;9.20;99.90
18291;DHT22;9271;48.590;8.866;2023-11-21T02:14:59;9.40;99.90
18291;DHT22;9271;48.590;8.866;2023-11-21T02:17:26;9.70;99.90
18291;DHT22;9271;48.590;8.866;2023-11-21T02:19:52;10.00;99.90
18291;DHT22;9271;48.590;8.866;2023-11-21T02:22:19;10.20;99.90
18291;DHT22;9271;48.590;8.866;2023-11-21T02:24:49;10.20;99.90
18291;DHT22;9271;48.590;8.866;2023-11-21T02:27:16;10.20;99.90
18291;DHT22;9271;48.590;8.866;2023-11-21T02:29:47;10.30;99.90
18291;DHT22;9271;48.590;8.866;2023-11-21T02:32:14;10.40;99.90
18291;DHT22;9271;48.590;8.866;2023-11-21T02:34:42;10.50;99.90
18291;DHT22;9271;48.590;8.866;2023-11-21T02:37:09;10.40;99.90
18291;DHT22;9271;48.590;8.866;2023-11-21T02:39:35;10.50;99.90
18291;DHT22;9271;48.590;8.866;2023-11-21T02:42:05;10.30;99.90
18291;DHT22;9271;48.590;8.866;2023-11-21T02:44:31;10.20;99.90
18291;DHT22;9271;48.590;8.866;2023-11-21T02:46:58;10.20;99.90
18291;DHT22;9271;48.590;8.866;2023-11-21T02:49:25;10.20;99.90
18291;DHT22;9271;48.590;8.866;2023-11-21T02:51:53;10.20;99.90
18291;DHT22;9271;48.590;8.866;2023-11-21T02:54:20;10.20;99.90
18291;DHT22;9271;48.590;8.866;2023-11-21T02:56:47;10.20;99.90
18291;DHT22;9271;48.590;8.866;2023-11-21T02:59:16;10.20;99.90
18291;DHT22;9271;48.590;8.866;2023-11-21T03:01:43;10.10;99.90
18291;DHT22;9271;48.590;8.866;2023-11-21T03:04:09;10.10;99.90
18291;DHT22;9271;48.590;8.866;2023-11-21T03:06:36;10.10;99.90
18291;DHT22;9271;48.590;8.866;2023-11-21T03:09:03;10.20;99.90
18291;DHT22;9271;48.590;8.866;2023-11-21T03:11:30;10.20;99.90
18291;DHT22;9271;48.590;8.866;2023-11-21T03:13:57;10.10;99.90
18291;DHT22;9271;48.590;8.866;2023-11-21T03:16:25;10.20;99.90
18291;DHT22;9271;48.590;8.866;2023-11-21T03:18:52;10.20;99.90
18291;DHT22;9271;48.590;8.866;2023-11-21T03:21:19;10.20;99.90
18291;DHT22;9271;48.590;8.866;2023-11-21T03:23:45;10.30;99.90
18291;DHT22;9271;48.590;8.866;2023-11-21T03:26:12;10.40;99.90
18291;DHT22;9271;48.590;8.866;2023-11-21T03:28:39;10.50;99.90
18291;DHT22;9271;48.590;8.866;2023-11-21T03:31:06;10.40;99.90
18291;DHT22;9271;48.590;8.866;2023-11-21T03:33:35;10.40;99.90
18291;DHT22;9271;48.590;8.866;2023-11-21T03:36:02;10.40;99.90
18291;DHT22;9271;48.590;8.866;2023-11-21T03:38:29;10.40;99.90
18291;DHT22;9271;48.590;8.866;2023-11-21T03:40:56;10.40;99.90
18291;DHT22;9271;48.590;8.866;2023-11-21T03:43:22;10.40;99.90
18291;DHT22;9271;48.590;8.866;2023-11-21T03:45:50;10.60;99.90
18291;DHT22;9271;48.590;8.866;2023-11-21T03:48:16;10.50;99.90
18291;DHT22;9271;48.590;8.866;2023-11-21T03:50:44;10.50;99.90
18291;DHT22;9271;48.590;8.866;2023-11-21T03:53:12;10.50;99.90
18291;DHT22;9271;48.590;8.866;2023-11-21T03:55:39;10.50;99.90
18291;DHT22;9271;48.590;8.866;2023-11-21T03:58:06;10.40;99.90
18291;DHT22;9271;48.590;8.866;2023-11-21T04:00:32;10.40;99.90
18291;DHT22;9271;48.590;8.866;2023-11-21T04:02:59;10.40;99.90
18291;DHT22;9271;48.590;8.866;2023-11-21T04:05:26;10.50;99.90
18291;DHT22;9271;48.590;8.866;2023-11-21T04:07:54;10.50;99.90
18291;DHT22;9271;48.590;8.866;2023-11-21T04:10:20;10.60;99.90
18291;DHT22;9271;48.590;8.866;2023-11-21T04:12:48;10.50;99.90
18291;DHT22;9271;48.590;8.866;2023-11-21T04:15:15;10.40;99.90
18291;DHT22;9271;48.590;8.866;2023-11-21T04:17:42;10.50;99.90
18291;DHT22;9271;48.590;8.866;2023-11-21T04:20:11;10.60;99.90
18291;DHT22;9271;48.590;8.866;2023-11-21T04:22:38;10.50;99.90
18291;DHT22;9271;48.590;8.866;2023-11-21T04:25:10;10.40;99.90
18291;DHT22;9271;48.590;8.866;2023-11-21T04:27:38;10.30;99.90
18291;DHT22;9271;48.590;8.866;2023-11-21T04:30:06;10.30;99.90
18291;DHT22;9271;48.590;8.866;2023-11-21T04:32:33;10.40;99.90
18291;DHT22;9271;48.590;8.866;2023-11-21T04:35:00;10.40;99.90
18291;DHT22;9271;48.590;8.866;2023-11-21T04:37:26;10.40;99.90
18291;DHT22;9271;48.590;8.866;2023-11-21T04:39:53;10.30;99.90
18291;DHT22;9271;48.590;8.866;2023-11-21T04:42:21;10.60;99.90
18291;DHT22;9271;48.590;8.866;2023-11-21T04:44:48;10.60;99.90
18291;DHT22;9271;48.590;8.866;2023-11-21T04:47:15;10.60;99.90
18291;DHT22;9271;48.590;8.866;2023-11-21T04:49:42;10.50;99.90
18291;DHT22;9271;48.590;8.866;2023-11-21T04:52:09;10.40;99.90
18291;DHT22;9271;48.590;8.866;2023-11-21T04:54:36;10.30;99.90
18291;DHT22;9271;48.590;8.866;2023-11-21T04:57:03;10.30;99.90
18291;DHT22;9271;48.590;8.866;2023-11-21T04:59:31;10.20;99.90
18291;DHT22;9271;48.590;8.866;2023-11-21T05:01:58;10.30;99.90
18291;DHT22;9271;48.590;8.866;2023-11-21T05:04:25;10.30;99.90
18291;DHT22;9271;48.590;8.866;2023-11-21T05:06:52;10.30;99.90
18291;DHT22;9271;48.590;8.866;2023-11-21T05:09:19;10.30;99.90
18291;DHT22;9271;48.590;8.866;2023-11-21T05:11:47;10.30;99.90
18291;DHT22;9271;48.590;8.866;2023-11-21T05:14:14;10.40;99.90
18291;DHT22;9271;48.590;8.866;2023-11-21T05:16:42;10.50;99.90
18291;DHT22;9271;48.590;8.866;2023-11-21T05:19:09;10.60;99.90
18291;DHT22;9271;48.590;8.866;2023-11-21T05:21:35;10.50;99.90
18291;DHT22;9271;48.590;8.866;2023-11-21T05:24:02;10.60;99.90
18291;DHT22;9271;48.590;8.866;2023-11-21T05:26:30;10.50;99.90
18291;DHT22;9271;48.590;8.866;2023-11-21T05:28:57;10.50;99.90
18291;DHT22;9271;48.590;8.866;2023-11-21T05:31:24;10.50;99.90
18291;DHT22;9271;48.590;8.866;2023-11-21T05:33:52;10.50;99.90
18291;DHT22;9271;48.590;8.866;2023-11-21T05:36:18;10.50;99.90
18291;DHT22;9271;48.590;8.866;2023-11-21T05:38:45;10.60;99.90
18291;DHT22;9271;48.590;8.866;2023-11-21T05:41:12;10.50;99.90
18291;DHT22;9271;48.590;8.866;2023-11-21T05:43:39;10.40;99.90
18291;DHT22;9271;48.590;8.866;2023-11-21T05:46:06;10.40;99.90
18291;DHT22;9271;48.590;8.866;2023-11-21T05:48:34;10.40;99.90
18291;DHT22;9271;48.590;8.866;2023-11-21T05:51:04;10.30;99.90
18291;DHT22;9271;48.590;8.866;2023-11-21T05:53:30;10.20;99.90
18291;DHT22;9271;48.590;8.866;2023-11-21T05:55:57;10.00;99.90
18291;DHT22;9271;48.590;8.866;2023-11-21T05:58:24;9.90;99.90
18291;DHT22;9271;48.590;8.866;2023-11-21T06:00:49;9.90;99.90
18291;DHT22;9271;48.590;8.866;2023-11-21T06:03:16;9.80;99.90
18291;DHT22;9271;48.590;8.866;2023-11-21T06:05:43;9.90;99.90
18291;DHT22;9271;48.590;8.866;2023-11-21T06:08:11;9.90;99.90
18291;DHT22;9271;48.590;8.866;2023-11-21T06:10:38;9.70;99.90
18291;DHT22;9271;48.590;8.866;2023-11-21T06:13:05;9.50;99.90
18291;DHT22;9271;48.590;8.866;2023-11-21T06:15:32;9.50;99.90
18291;DHT22;9271;48.590;8.866;2023-11-21T06:17:59;9.50;99.90
18291;DHT22;9271;48.590;8.866;2023-11-21T06:20:26;9.50;99.90
18291;DHT22;9271;48.590;8.866;2023-11-21T06:22:53;9.40;99.90
18291;DHT22;9271;48.590;8.866;2023-11-21T06:25:21;9.40;99.90
18291;DHT22;9271;48.590;8.866;2023-11-21T06:27:48;9.50;99.90
18291;DHT22;9271;48.590;8.866;2023-11-21T06:30:15;9.40;99.90
18291;DHT22;9271;48.590;8.866;2023-11-21T06:32:45;9.50;99.90
18291;DHT22;9271;48.590;8.866;2023-11-21T06:35:12;9.40;99.90
18291;DHT22;9271;48.590;8.866;2023-11-21T06:37:40;9.50;99.90
18291;DHT22;9271;48.590;8.866;2023-11-21T06:40:12;9.50;99.90
18291;DHT22;9271;48.590;8.866;2023-11-21T06:42:41;9.60;99.90
18291;DHT22;9271;48.590;8.866;2023-11-21T06:45:10;9.50;99.90
18291;DHT22;9271;48.590;8.866;2023-11-21T06:47:36;9.70;99.90
18291;DHT22;9271;48.590;8.866;2023-11-21T06:50:04;9.80;99.90
18291;DHT22;9271;48.590;8.866;2023-11-21T06:52:32;9.80;99.90
18291;DHT22;9271;48.590;8.866;2023-11-21T06:54:59;10.00;99.90
18291;DHT22;9271;48.590;8.866;2023-11-21T06:57:26;9.90;99.90
18291;DHT22;9271;48.590;8.866;2023-11-21T06:59:54;10.10;99.90
18291;DHT22;9271;48.590;8.866;2023-11-21T07:02:22;10.00;99.90
18291;DHT22;9271;48.590;8.866;2023-11-21T07:04:49;10.00;99.90
18291;DHT22;9271;48.590;8.866;2023-11-21T07:07:16;10.10;99.90
18291;DHT22;9271;48.590;8.866;2023-11-21T07:09:42;10.10;99.90
18291;DHT22;9271;48.590;8.866;2023-11-21T07:12:09;10.20;99.90
18291;DHT22;9271;48.590;8.866;2023-11-21T07:14:36;10.30;99.90
18291;DHT22;9271;48.590;8.866;2023-11-21T07:17:05;10.30;99.90
18291;DHT22;9271;48.590;8.866;2023-11-21T07:19:32;10.30;99.90
18291;DHT22;9271;48.590;8.866;2023-11-21T07:21:59;10.30;99.90
18291;DHT22;9271;48.590;8.866;2023-11-21T07:24:26;10.40;99.90
18291;DHT22;9271;48.590;8.866;2023-11-21T07:26:52;10.40;99.90
18291;DHT22;9271;48.590;8.866;2023-11-21T07:29:22;10.40;99.90
18291;DHT22;9271;48.590;8.866;2023-11-21T07:31:51;10.40;99.90
18291;DHT22;9271;48.590;8.866;2023-11-21T07:34:19;10.50;99.90
18291;DHT22;9271;48.590;8.866;2023-11-21T07:36:46;10.60;99.90
18291;DHT22;9271;48.590;8.866;2023-11-21T07:39:12;10.70;99.90
18291;DHT22;9271;48.590;8.866;2023-11-21T07:41:41;10.70;99.90
18291;DHT22;9271;48.590;8.866;2023-11-21T07:44:11;10.60;99.90
18291;DHT22;9271;48.590;8.866;2023-11-21T07:46:37;10.60;99.90
18291;DHT22;9271;48.590;8.866;2023-11-21T07:49:04;10.90;99.90
18291;DHT22;9271;48.590;8.866;2023-11-21T07:51:32;11.00;99.90
18291;DHT22;9271;48.590;8.866;2023-11-21T07:53:59;11.10;99.90
18291;DHT22;9271;48.590;8.866;2023-11-21T07:56:26;11.00;99.90
18291;DHT22;9271;48.590;8.866;2023-11-21T07:58:52;11.00;99.90
18291;DHT22;9271;48.590;8.866;2023-11-21T08:01:19;11.10;99.90
18291;DHT22;9271;48.590;8.866;2023-11-21T08:03:46;11.00;99.90
18291;DHT22;9271;48.590;8.866;2023-11-21T08:06:16;11.20;99.90
18291;DHT22;9271;48.590;8.866;2023-11-21T08:08:44;11.30;99.90
18291;DHT22;9271;48.590;8.866;2023-11-21T08:11:10;11.50;99.90
18291;DHT22;9271;48.590;8.866;2023-11-21T08:13:37;11.60;99.90
18291;DHT22;9271;48.590;8.866;2023-11-21T08:16:05;11.70;99.90
18291;DHT22;9271;48.590;8.866;2023-11-21T08:18:33;11.80;99.90
18291;DHT22;9271;48.590;8.866;2023-11-21T08:21:00;11.60;99.90
18291;DHT22;9271;48.590;8.866;2023-11-21T08:23:28;11.80;99.90
18291;DHT22;9271;48.590;8.866;2023-11-21T08:25:56;11.80;99.90
18291;DHT22;9271;48.590;8.866;2023-11-21T08:28:23;12.00;99.90
18291;DHT22;9271;48.590;8.866;2023-11-21T08:30:51;12.00;99.90
18291;DHT22;9271;48.590;8.866;2023-11-21T08:33:17;11.90;99.90
18291;DHT22;9271;48.590;8.866;2023-11-21T08:35:44;11.90;99.90
18291;DHT22;9271;48.590;8.866;2023-11-21T08:38:12;12.00;99.90
18291;DHT22;9271;48.590;8.866;2023-11-21T08:40:39;12.00;99.90
18291;DHT22;9271;48.590;8.866;2023-11-21T08:43:07;12.10;99.90
18291;DHT22;9271;48.590;8.866;2023-11-21T08:45:34;12.30;99.90
18291;DHT22;9271;48.590;8.866;2023-11-21T08:48:01;12.30;99.90
18291;DHT22;9271;48.590;8.866;2023-11-21T08:50:28;12.20;99.90
18291;DHT22;9271;48.590;8.866;2023-11-21T08:52:54;12.10;99.90
18291;DHT22;9271;48.590;8.866;2023-11-21T08:55:21;12.50;99.90
18291;DHT22;9271;48.590;8.866;2023-11-21T08:57:48;12.70;99.90
18291;DHT22;9271;48.590;8.866;2023-11-21T09:00:17;12.90;99.90
18291;DHT22;9271;48.590;8.866;2023-11-21T09:02:44;13.00;99.90
18291;DHT22;9271;48.590;8.866;2023-11-21T09:05:12;12.80;99.90
18291;DHT22;9271;48.590;8.866;2023-11-21T09:07:40;12.60;99.90
18291;DHT22;9271;48.590;8.866;2023-11-21T09:10:08;12.60;99.90
18291;DHT22;9271;48.590;8.866;2023-11-21T09:12:35;12.50;99.90
18291;DHT22;9271;48.590;8.866;2023-11-21T09:15:03;12.50;99.90
18291;DHT22;9271;48.590;8.866;2023-11-21T09:17:31;12.20;99.90
18291;DHT22;9271;48.590;8.866;2023-11-21T09:19:59;12.10;99.90
18291;DHT22;9271;48.590;8.866;2023-11-21T09:22:26;12.10;99.90
18291;DHT22;9271;48.590;8.866;2023-11-21T09:24:55;12.30;99.90
18291;DHT22;9271;48.590;8.866;2023-11-21T09:27:22;12.20;99.90
18291;DHT22;9271;48.590;8.866;2023-11-21T09:29:48;12.80;99.90
18291;DHT22;9271;48.590;8.866;2023-11-21T09:32:15;13.40;99.90
18291;DHT22;9271;48.590;8.866;2023-11-21T09:34:45;13.50;99.90
18291;DHT22;9271;48.590;8.866;2023-11-21T09:37:12;14.00;99.90
18291;DHT22;9271;48.590;8.866;2023-11-21T09:39:38;13.70;99.90
18291;DHT22;9271;48.590;8.866;2023-11-21T09:42:10;13.50;99.90
18291;DHT22;9271;48.590;8.866;2023-11-21T09:44:46;13.50;99.90
18291;DHT22;9271;48.590;8.866;2023-11-21T09:47:15;13.50;99.90
18291;DHT22;9271;48.590;8.866;2023-11-21T09:49:46;13.50;99.90
18291;DHT22;9271;48.590;8.866;2023-11-21T09:52:18;13.20;99.90
18291;DHT22;9271;48.590;8.866;2023-11-21T09:54:49;13.20;99.90
18291;DHT22;9271;48.590;8.866;2023-11-21T09:57:16;13.10;99.90
18291;DHT22;9271;48.590;8.866;2023-11-21T09:59:45;13.20;99.90
18291;DHT22;9271;48.590;8.866;2023-11-21T10:02:14;13.40;99.90
18291;DHT22;9271;48.590;8.866;2023-11-21T10:04:46;13.10;99.90
18291;DHT22;9271;48.590;8.866;2023-11-21T10:07:14;13.10;99.90
18291;DHT22;9271;48.590;8.866;2023-11-21T10:09:44;13.00;99.90
18291;DHT22;9271;48.590;8.866;2023-11-21T10:12:11;13.10;99.90
18291;DHT22;9271;48.590;8.866;2023-11-21T10:14:41;13.30;99.90
18291;DHT22;9271;48.590;8.866;2023-11-21T10:17:10;13.30;99.90
18291;DHT22;9271;48.590;8.866;2023-11-21T10:19:39;13.10;99.90
18291;DHT22;9271;48.590;8.866;2023-11-21T10:22:07;13.10;99.90
18291;DHT22;9271;48.590;8.866;2023-11-21T10:24:34;13.30;99.90
18291;DHT22;9271;48.590;8.866;2023-11-21T10:27:03;13.60;99.90
18291;DHT22;9271;48.590;8.866;2023-11-21T10:29:29;13.60;99.90
18291;DHT22;9271;48.590;8.866;2023-11-21T10:31:56;13.70;99.90
18291;DHT22;9271;48.590;8.866;2023-11-21T10:34:24;13.90;99.90
18291;DHT22;9271;48.590;8.866;2023-11-21T10:36:53;14.10;99.90
18291;DHT22;9271;48.590;8.866;2023-11-21T10:39:25;14.20;99.90
18291;DHT22;9271;48.590;8.866;2023-11-21T10:41:56;14.40;99.90
18291;DHT22;9271;48.590;8.866;2023-11-21T10:44:22;14.20;99.90
18291;DHT22;9271;48.590;8.866;2023-11-21T10:46:52;14.20;99.90
18291;DHT22;9271;48.590;8.866;2023-11-21T10:49:22;13.90;99.90
18291;DHT22;9271;48.590;8.866;2023-11-21T10:51:50;12.60;99.90
18291;DHT22;9271;48.590;8.866;2023-11-21T10:54:19;12.50;99.90
18291;DHT22;9271;48.590;8.866;2023-11-21T10:56:50;12.70;99.90
18291;DHT22;9271;48.590;8.866;2023-11-21T10:59:17;13.00;99.90
18291;DHT22;9271;48.590;8.866;2023-11-21T11:01:46;13.20;99.90
18291;DHT22;9271;48.590;8.866;2023-11-21T11:04:15;13.30;99.90
18291;DHT22;9271;48.590;8.866;2023-11-21T11:06:44;12.90;99.90
18291;DHT22;9271;48.590;8.866;2023-11-21T11:09:13;13.10;99.90
18291;DHT22;9271;48.590;8.866;2023-11-21T11:11:42;13.10;99.90
18291;DHT22;9271;48.590;8.866;2023-11-21T11:14:11;13.10;99.90
18291;DHT22;9271;48.590;8.866;2023-11-21T11:16:39;13.40;99.90
18291;DHT22;9271;48.590;8.866;2023-11-21T11:19:06;13.50;99.90
18291;DHT22;9271;48.590;8.866;2023-11-21T11:21:43;13.60;99.90
18291;DHT22;9271;48.590;8.866;2023-11-21T11:24:29;13.90;99.90
18291;DHT22;9271;48.590;8.866;2023-11-21T11:27:11;14.00;99.90
18291;DHT22;9271;48.590;8.866;2023-11-21T11:29:52;14.00;99.90
18291;DHT22;9271;48.590;8.866;2023-11-21T11:32:31;14.00;99.90
18291;DHT22;9271;48.590;8.866;2023-11-21T11:35:06;14.10;99.90
18291;DHT22;9271;48.590;8.866;2023-11-21T11:37:34;14.10;99.90
18291;DHT22;9271;48.590;8.866;2023-11-21T11:40:00;13.80;99.90
18291;DHT22;9271;48.590;8.866;2023-11-21T11:42:28;14.00;99.90
18291;DHT22;9271;48.590;8.866;2023-11-21T11:44:57;14.00;99.90
18291;DHT22;9271;48.590;8.866;2023-11-21T11:47:25;14.00;99.90
18291;DHT22;9271;48.590;8.866;2023-11-21T11:50:04;14.10;99.90
18291;DHT22;9271;48.590;8.866;2023-11-21T11:52:37;14.40;99.90
18291;DHT22;9271;48.590;8.866;2023-11-21T11:55:06;14.60;99.90
18291;DHT22;9271;48.590;8.866;2023-11-21T11:57:35;14.70;99.90
18291;DHT22;9271;48.590;8.866;2023-11-21T12:00:13;14.80;99.90
18291;DHT22;9271;48.590;8.866;2023-11-21T12:02:45;14.50;99.90
18291;DHT22;9271;48.590;8.866;2023-11-21T12:05:14;14.30;99.90
18291;DHT22;9271;48.590;8.866;2023-11-21T12:07:49;13.90;99.90
18291;DHT22;9271;48.590;8.866;2023-11-21T12:10:18;13.70;99.90
18291;DHT22;9271;48.590;8.866;2023-11-21T12:12:48;13.50;99.90
18291;DHT22;9271;48.590;8.866;2023-11-21T12:15:17;13.70;99.90
18291;DHT22;9271;48.590;8.866;2023-11-21T12:17:44;13.80;99.90
18291;DHT22;9271;48.590;8.866;2023-11-21T12:20:12;13.80;99.90
18291;DHT22;9271;48.590;8.866;2023-11-21T12:22:43;13.80;99.90
18291;DHT22;9271;48.590;8.866;2023-11-21T12:25:10;13.70;99.90
18291;DHT22;9271;48.590;8.866;2023-11-21T12:27:42;13.60;99.90
18291;DHT22;9271;48.590;8.866;2023-11-21T12:30:09;13.80;99.90
18291;DHT22;9271;48.590;8.866;2023-11-21T12:32:40;14.30;99.90
18291;DHT22;9271;48.590;8.866;2023-11-21T12:35:08;14.70;99.90
18291;DHT22;9271;48.590;8.866;2023-11-21T12:37:35;15.20;99.90
18291;DHT22;9271;48.590;8.866;2023-11-21T12:40:02;15.70;99.90
18291;DHT22;9271;48.590;8.866;2023-11-21T12:42:29;16.60;99.90
18291;DHT22;9271;48.590;8.866;2023-11-21T12:45:15;17.20;99.90
18291;DHT22;9271;48.590;8.866;2023-11-21T12:47:47;16.80;99.90
18291;DHT22;9271;48.590;8.866;2023-11-21T12:50:15;17.00;99.90
18291;DHT22;9271;48.590;8.866;2023-11-21T12:52:42;16.70;99.90
18291;DHT22;9271;48.590;8.866;2023-11-21T12:55:13;16.10;99.90
18291;DHT22;9271;48.590;8.866;2023-11-21T12:57:42;15.30;99.90
18291;DHT22;9271;48.590;8.866;2023-11-21T13:00:10;15.00;99.90
18291;DHT22;9271;48.590;8.866;2023-11-21T13:02:54;14.70;99.90
18291;DHT22;9271;48.590;8.866;2023-11-21T13:05:29;14.50;99.90
18291;DHT22;9271;48.590;8.866;2023-11-21T13:07:58;14.60;99.90
18291;DHT22;9271;48.590;8.866;2023-11-21T13:10:26;14.90;99.90
18291;DHT22;9271;48.590;8.866;2023-11-21T13:12:56;14.80;99.90
18291;DHT22;9271;48.590;8.866;2023-11-21T13:15:25;14.60;99.90
18291;DHT22;9271;48.590;8.866;2023-11-21T13:17:54;14.50;99.90
18291;DHT22;9271;48.590;8.866;2023-11-21T13:20:23;14.10;99.90
18291;DHT22;9271;48.590;8.866;2023-11-21T13:22:51;13.90;99.90
18291;DHT22;9271;48.590;8.866;2023-11-21T13:25:20;13.90;99.90
18291;DHT22;9271;48.590;8.866;2023-11-21T13:27:47;13.90;99.90
18291;DHT22;9271;48.590;8.866;2023-11-21T13:30:21;14.00;99.90
18291;DHT22;9271;48.590;8.866;2023-11-21T13:32:53;13.70;99.90
18291;DHT22;9271;48.590;8.866;2023-11-21T13:35:23;13.60;99.90
18291;DHT22;9271;48.590;8.866;2023-11-21T13:37:57;13.60;99.90
18291;DHT22;9271;48.590;8.866;2023-11-21T13:40:25;13.60;99.90
18291;DHT22;9271;48.590;8.866;2023-11-21T13:42:53;13.80;99.90
18291;DHT22;9271;48.590;8.866;2023-11-21T13:45:21;14.00;99.90
18291;DHT22;9271;48.590;8.866;2023-11-21T13:47:49;14.10;99.90
18291;DHT22;9271;48.590;8.866;2023-11-21T13:50:19;14.30;99.90
18291;DHT22;9271;48.590;8.866;2023-11-21T13:52:48;14.50;99.90
18291;DHT22;9271;48.590;8.866;2023-11-21T13:55:16;14.80;99.90
18291;DHT22;9271;48.590;8.866;2023-11-21T13:57:43;14.80;99.90
18291;DHT22;9271;48.590;8.866;2023-11-21T14:00:13;14.60;99.90
18291;DHT22;9271;48.590;8.866;2023-11-21T14:03:01;14.50;99.90
18291;DHT22;9271;48.590;8.866;2023-11-21T14:05:31;14.20;99.90
18291;DHT22;9271;48.590;8.866;2023-11-21T14:07:59;13.90;99.90
18291;DHT22;9271;48.590;8.866;2023-11-21T14:10:30;13.80;99.90
18291;DHT22;9271;48.590;8.866;2023-11-21T14:13:03;13.60;99.90
18291;DHT22;9271;48.590;8.866;2023-11-21T14:15:31;13.50;99.90
18291;DHT22;9271;48.590;8.866;2023-11-21T14:17:58;13.30;99.90
18291;DHT22;9271;48.590;8.866;2023-11-21T14:20:28;13.20;99.90
18291;DHT22;9271;48.590;8.866;2023-11-21T14:22:56;13.20;99.90
18291;DHT22;9271;48.590;8.866;2023-11-21T14:25:23;13.20;99.90
18291;DHT22;9271;48.590;8.866;2023-11-21T14:27:52;13.10;99.90
18291;DHT22;9271;48.590;8.866;2023-11-21T14:30:19;13.10;99.90
18291;DHT22;9271;48.590;8.866;2023-11-21T14:32:48;12.80;99.90
18291;DHT22;9271;48.590;8.866;2023-11-21T14:35:15;12.80;99.90
18291;DHT22;9271;48.590;8.866;2023-11-21T14:37:42;12.70;99.90
18291;DHT22;9271;48.590;8.866;2023-11-21T14:40:11;12.70;99.90
18291;DHT22;9271;48.590;8.866;2023-11-21T14:42:41;12.80;99.90
18291;DHT22;9271;48.590;8.866;2023-11-21T14:45:09;12.70;99.90
18291;DHT22;9271;48.590;8.866;2023-11-21T14:47:37;12.60;99.90
18291;DHT22;9271;48.590;8.866;2023-11-21T14:50:09;12.80;99.90
18291;DHT22;9271;48.590;8.866;2023-11-21T14:53:04;13.00;99.90
18291;DHT22;9271;48.590;8.866;2023-11-21T14:55:32;13.10;99.90
18291;DHT22;9271;48.590;8.866;2023-11-21T14:58:11;13.00;99.90
18291;DHT22;9271;48.590;8.866;2023-11-21T15:00:41;12.90;99.90
18291;DHT22;9271;48.590;8.866;2023-11-21T15:03:10;12.90;99.90
18291;DHT22;9271;48.590;8.866;2023-11-21T15:05:47;12.70;99.90
18291;DHT22;9271;48.590;8.866;2023-11-21T15:08:14;12.70;99.90
18291;DHT22;9271;48.590;8.866;2023-11-21T15:10:48;12.70;99.90
18291;DHT22;9271;48.590;8.866;2023-11-21T15:13:19;12.70;99.90
18291;DHT22;9271;48.590;8.866;2023-11-21T15:15:46;12.40;99.90
18291;DHT22;9271;48.590;8.866;2023-11-21T15:18:12;12.20;99.90
18291;DHT22;9271;48.590;8.866;2023-11-21T15:20:39;12.00;99.90
18291;DHT22;9271;48.590;8.866;2023-11-21T15:23:06;11.90;99.90
18291;DHT22;9271;48.590;8.866;2023-11-21T15:25:34;11.90;99.90
18291;DHT22;9271;48.590;8.866;2023-11-21T15:28:02;11.80;99.90
18291;DHT22;9271;48.590;8.866;2023-11-21T15:30:30;11.70;99.90
18291;DHT22;9271;48.590;8.866;2023-11-21T15:32:57;11.70;99.90
18291;DHT22;9271;48.590;8.866;2023-11-21T15:35:24;11.60;99.90
18291;DHT22;9271;48.590;8.866;2023-11-21T15:37:52;11.60;99.90
18291;DHT22;9271;48.590;8.866;2023-11-21T15:40:19;11.40;99.90
18291;DHT22;9271;48.590;8.866;2023-11-21T15:42:46;11.50;99.90
18291;DHT22;9271;48.590;8.866;2023-11-21T15:45:15;11.30;99.90
18291;DHT22;9271;48.590;8.866;2023-11-21T15:47:44;11.20;99.90
18291;DHT22;9271;48.590;8.866;2023-11-21T15:50:11;11.10;99.90
18291;DHT22;9271;48.590;8.866;2023-11-21T15:52:39;11.20;99.90
18291;DHT22;9271;48.590;8.866;2023-11-21T15:55:06;11.10;99.90